< < Back
Terminal Aerodrome Forecast


Current Version              Previous Versions:   1  2  3  4  5  6  7  8  9  

Terminal Aerodrome Forecast

596
FTUS44 KBMX 212300
TAFANB
TAF
KANB 212321Z 2200/2224 00000KT P6SM SKC
     FM221500 30005KT P6SM SCT050=



Latest METAR

738
SAUS70 KWBC 221500 RRE
MTRANB
METAR KANB 221453Z AUTO 22006KT 10SM CLR 29/23 A3015 RMK AO2 SLP198
T02940233 51011


USA.gov is the U.S. government's official web portal to all federal, state and local government web resources and services.